createdAt,value
2024-03-06T00:01:05.675Z,99558.25
2024-03-06T00:03:32.226Z,99563.09
2024-03-06T00:05:58.723Z,99569.47
2024-03-06T00:08:25.254Z,99567.97
2024-03-06T00:10:51.805Z,99576.84
2024-03-06T00:13:18.363Z,99581.84
2024-03-06T00:15:44.850Z,99577.34
2024-03-06T00:18:11.574Z,99579.69
2024-03-06T00:20:38.756Z,99576.19
2024-03-06T00:23:05.542Z,99572.50
2024-03-06T00:25:32.127Z,99574.66
2024-03-06T00:27:58.719Z,99570.63
2024-03-06T00:30:25.290Z,99571.63
2024-03-06T00:32:52.017Z,99569.13
2024-03-06T00:35:18.781Z,99577.31
2024-03-06T00:37:45.555Z,99572.75
2024-03-06T00:40:13.055Z,99572.56
2024-03-06T00:42:41.634Z,99555.44
2024-03-06T00:45:08.666Z,99575.22
2024-03-06T00:47:35.831Z,99589.91
2024-03-06T00:50:02.754Z,99587.22
2024-03-06T00:52:29.294Z,99571.47
2024-03-06T00:54:55.866Z,99582.34
2024-03-06T00:57:22.337Z,99583.84
2024-03-06T00:59:48.855Z,99576.59
2024-03-06T01:02:15.536Z,99592.66
2024-03-06T01:04:42.237Z,99580.00
2024-03-06T01:07:08.819Z,99586.69
2024-03-06T01:09:35.567Z,99583.97
2024-03-06T01:12:02.081Z,99592.00
2024-03-06T01:14:28.549Z,99586.91
2024-03-06T01:16:55.176Z,99586.72
2024-03-06T01:19:21.769Z,99585.81
2024-03-06T01:21:49.638Z,99593.47
2024-03-06T01:24:16.168Z,99589.63
2024-03-06T01:26:42.690Z,99588.00
2024-03-06T01:29:09.296Z,99588.53
2024-03-06T01:31:35.847Z,99593.00
2024-03-06T01:34:02.335Z,99592.44
2024-03-06T01:36:28.906Z,99596.94
2024-03-06T01:38:55.390Z,99597.34
2024-03-06T01:41:21.992Z,99594.13
2024-03-06T01:43:48.613Z,99591.38
2024-03-06T01:46:15.226Z,99596.69
2024-03-06T01:48:44.023Z,99586.47
2024-03-06T01:51:10.902Z,99592.84
2024-03-06T01:53:37.955Z,99598.38
2024-03-06T01:56:05.468Z,99592.56
2024-03-06T01:58:35.088Z,99599.41
2024-03-06T02:01:02.603Z,99592.06
2024-03-06T02:03:30.781Z,99597.16
2024-03-06T02:05:59.879Z,99599.94
2024-03-06T02:08:26.585Z,99589.53
2024-03-06T02:10:53.469Z,99605.03
2024-03-06T02:13:20.401Z,99600.44
2024-03-06T02:15:47.101Z,99601.44
2024-03-06T02:18:13.945Z,99608.38
2024-03-06T02:20:43.806Z,99602.16
2024-03-06T02:23:10.545Z,99599.84
2024-03-06T02:25:37.459Z,99598.31
2024-03-06T02:28:04.347Z,99603.53
2024-03-06T02:30:36.620Z,99597.53
2024-03-06T02:33:13.167Z,99607.91
2024-03-06T02:35:41.206Z,99606.91
2024-03-06T02:38:07.947Z,99607.50
2024-03-06T02:40:34.827Z,99606.06
2024-03-06T02:43:01.531Z,99605.47
2024-03-06T02:45:28.075Z,99602.38
2024-03-06T02:47:55.218Z,99604.63
2024-03-06T02:50:22.450Z,99606.63
2024-03-06T02:52:49.097Z,99611.59
2024-03-06T02:55:16.288Z,99613.88
2024-03-06T02:57:42.880Z,99610.66
2024-03-06T03:00:14.713Z,99617.41
2024-03-06T03:02:41.480Z,99617.81
2024-03-06T03:05:08.595Z,99613.03
2024-03-06T03:07:35.254Z,99615.47
2024-03-06T03:10:01.907Z,99619.13
2024-03-06T03:12:28.377Z,99623.81
2024-03-06T03:14:54.882Z,99626.88
2024-03-06T03:17:21.484Z,99624.22
2024-03-06T03:19:48.146Z,99627.88
2024-03-06T03:22:14.652Z,99625.22
2024-03-06T03:24:43.044Z,99632.78
2024-03-06T03:27:09.492Z,99634.78
2024-03-06T03:29:36.050Z,99633.09
2024-03-06T03:32:02.636Z,99633.66
2024-03-06T03:34:29.236Z,99636.03
2024-03-06T03:36:55.821Z,99631.94
2024-03-06T03:39:25.493Z,99633.09
2024-03-06T03:41:52.115Z,99640.16
2024-03-06T03:44:22.904Z,99643.50
2024-03-06T03:46:49.567Z,99636.78
2024-03-06T03:49:16.304Z,99645.31
2024-03-06T03:51:42.908Z,99642.97
2024-03-06T03:54:09.436Z,99637.22
2024-03-06T03:56:36.300Z,99647.88
2024-03-06T03:59:03.073Z,99648.28
2024-03-06T04:01:29.769Z,99648.16
2024-03-06T04:03:56.314Z,99647.75
2024-03-06T04:06:22.948Z,99641.59
2024-03-06T04:08:50.067Z,99651.97
2024-03-06T04:11:17.057Z,99652.66
2024-03-06T04:13:43.847Z,99647.47
2024-03-06T04:16:10.637Z,99661.47
2024-03-06T04:18:37.404Z,99659.22
2024-03-06T04:21:07.341Z,99658.25
2024-03-06T04:23:34.302Z,99640.03
2024-03-06T04:26:01.646Z,99656.72
2024-03-06T04:28:28.286Z,99664.16
2024-03-06T04:30:54.999Z,99663.31
2024-03-06T04:33:21.544Z,99671.03
2024-03-06T04:35:48.292Z,99668.22
2024-03-06T04:38:15.096Z,99667.53
2024-03-06T04:40:41.882Z,99669.63
2024-03-06T04:43:08.514Z,99673.59
2024-03-06T04:45:35.268Z,99676.38
2024-03-06T04:48:01.941Z,99678.91
2024-03-06T04:50:28.603Z,99676.66
2024-03-06T04:52:55.600Z,99682.38
2024-03-06T04:55:24.099Z,99684.22
2024-03-06T04:57:50.911Z,99683.09
2024-03-06T05:00:19.779Z,99695.84
2024-03-06T06:00:17.768Z,99701.63
2024-03-06T06:02:45.985Z,99706.69
2024-03-06T06:07:45.586Z,99707.50
2024-03-06T06:10:12.487Z,99702.72
2024-03-06T06:12:39.055Z,99695.72
2024-03-06T06:15:06.193Z,99711.53
2024-03-06T06:17:32.777Z,99711.53
2024-03-06T06:19:59.409Z,99707.28
2024-03-06T06:22:28.899Z,99701.38
2024-03-06T06:24:56.830Z,99717.47
2024-03-06T06:27:23.455Z,99719.81
2024-03-06T06:29:49.932Z,99710.59
2024-03-06T06:32:16.616Z,99712.53
2024-03-06T06:34:43.128Z,99719.09
2024-03-06T06:37:09.627Z,99718.22
2024-03-06T06:39:36.156Z,99712.00
2024-03-06T06:42:05.449Z,99697.78
2024-03-06T06:44:31.986Z,99721.91
2024-03-06T06:46:58.858Z,99720.84
2024-03-06T06:49:25.377Z,99715.59
2024-03-06T06:51:52.799Z,99716.53
2024-03-06T06:54:19.496Z,99720.41
2024-03-06T06:56:46.061Z,99716.97
2024-03-06T06:59:14.529Z,99723.22
2024-03-06T07:01:42.846Z,99722.97
2024-03-06T07:04:09.355Z,99725.75
2024-03-06T07:06:36.532Z,99733.69
2024-03-06T07:09:06.026Z,99722.38
2024-03-06T07:11:32.544Z,99703.41
2024-03-06T07:13:59.056Z,99720.78
2024-03-06T07:16:25.678Z,99729.41
2024-03-06T07:18:52.214Z,99725.41
2024-03-06T07:21:19.158Z,99722.09
2024-03-06T07:23:45.726Z,99725.50
2024-03-06T07:26:12.840Z,99726.25
2024-03-06T07:28:39.571Z,99722.06
2024-03-06T07:31:06.073Z,99721.44
2024-03-06T07:33:35.346Z,99722.66
2024-03-06T07:36:02.228Z,99736.38
2024-03-06T07:38:29.537Z,99731.66
2024-03-06T07:40:56.713Z,99723.63
2024-03-06T07:43:24.473Z,99724.75
2024-03-06T07:45:51.020Z,99728.50
2024-03-06T07:48:17.669Z,99707.84
2024-03-06T07:50:44.242Z,99727.03
2024-03-06T07:53:10.783Z,99731.56
2024-03-06T07:55:37.378Z,99739.97
2024-03-06T07:58:03.945Z,99735.63
2024-03-06T08:00:32.421Z,99729.59
2024-03-06T08:02:59.179Z,99725.25
2024-03-06T08:05:25.748Z,99729.97
2024-03-06T08:07:52.376Z,99739.72
2024-03-06T08:10:19.932Z,99743.41
2024-03-06T08:12:47.247Z,99742.72
2024-03-06T08:15:15.191Z,99754.16
2024-03-06T08:17:44.961Z,99737.84
2024-03-06T08:20:12.885Z,99749.75
2024-03-06T08:22:41.006Z,99743.41
2024-03-06T08:25:08.927Z,99738.84
2024-03-06T08:27:37.263Z,99751.38
2024-03-06T08:30:08.431Z,99755.75
2024-03-06T08:32:36.484Z,99748.84
2024-03-06T08:35:07.532Z,99752.84
2024-03-06T08:37:34.713Z,99754.00
2024-03-06T08:40:02.084Z,99752.13
2024-03-06T08:42:29.314Z,99741.84
2024-03-06T08:44:56.156Z,99751.88
2024-03-06T08:47:22.706Z,99746.31
2024-03-06T08:49:49.356Z,99750.41
2024-03-06T08:52:16.051Z,99745.41
2024-03-06T08:54:42.903Z,99751.16
2024-03-06T08:57:10.064Z,99754.06
2024-03-06T08:59:36.734Z,99747.16
2024-03-06T09:02:17.713Z,99744.31
2024-03-06T09:04:44.480Z,99749.72
2024-03-06T09:07:11.596Z,99746.84
2024-03-06T09:09:38.496Z,99747.13
2024-03-06T09:12:06.566Z,99750.78
2024-03-06T09:14:36.455Z,99753.91
2024-03-06T09:17:03.194Z,99749.50
2024-03-06T09:19:30.439Z,99723.53
2024-03-06T09:21:57.586Z,99735.88
2024-03-06T09:24:26.207Z,99737.34
2024-03-06T09:26:53.611Z,99740.88
2024-03-06T09:29:20.573Z,99739.53
2024-03-06T09:31:48.991Z,99740.94
2024-03-06T09:34:16.207Z,99743.00
2024-03-06T09:36:48.198Z,99741.84
2024-03-06T09:39:24.027Z,99736.53
2024-03-06T09:41:51.425Z,99740.81
2024-03-06T09:44:19.168Z,99736.28
2024-03-06T09:46:47.118Z,99744.63
2024-03-06T09:49:16.497Z,99734.66
2024-03-06T09:51:54.676Z,99728.34
2024-03-06T09:54:21.347Z,99729.19
2024-03-06T09:56:49.333Z,99723.16
2024-03-06T09:59:16.572Z,99722.22
2024-03-06T10:01:58.195Z,99717.69
2024-03-06T10:04:28.743Z,99718.78
2024-03-06T10:07:00.056Z,99721.69
2024-03-06T10:09:28.078Z,99710.25
2024-03-06T10:11:55.395Z,99710.75
2024-03-06T10:14:22.167Z,99707.59
2024-03-06T10:16:58.964Z,99706.59
2024-03-06T10:19:30.336Z,99714.25
2024-03-06T10:21:58.530Z,99711.34
2024-03-06T10:24:27.704Z,99713.72
2024-03-06T10:26:59.758Z,99712.47
2024-03-06T10:29:30.318Z,99713.31
2024-03-06T10:31:59.389Z,99707.63
2024-03-06T10:34:27.695Z,99698.38
2024-03-06T10:36:59.003Z,99702.63
2024-03-06T10:39:25.874Z,99695.56
2024-03-06T10:41:59.178Z,99699.84
2024-03-06T10:44:27.484Z,99693.88
2024-03-06T10:47:01.591Z,99690.47
2024-03-06T10:49:30.650Z,99690.38
2024-03-06T10:52:08.290Z,99667.34
2024-03-06T10:54:36.231Z,99689.84
2024-03-06T10:57:03.681Z,99687.53
2024-03-06T10:59:31.337Z,99675.03
2024-03-06T11:02:01.964Z,99682.50
2024-03-06T11:04:31.236Z,99675.34
2024-03-06T11:07:00.692Z,99682.19
2024-03-06T11:09:36.408Z,99668.50
2024-03-06T11:12:04.043Z,99654.53
2024-03-06T11:14:32.663Z,99662.94
2024-03-06T11:17:05.425Z,99653.50
2024-03-06T11:19:33.555Z,99650.44
2024-03-06T11:22:00.729Z,99649.03
2024-03-06T11:24:34.802Z,99648.97
2024-03-06T11:27:02.435Z,99642.56
2024-03-06T11:29:30.683Z,99643.50
2024-03-06T11:32:02.807Z,99636.16
2024-03-06T11:34:31.624Z,99637.72
2024-03-06T11:36:58.636Z,99630.19
2024-03-06T11:39:25.309Z,99632.28
2024-03-06T11:41:52.265Z,99632.03
2024-03-06T11:44:24.782Z,99623.44
2024-03-06T11:46:59.670Z,99622.81
2024-03-06T11:49:32.710Z,99624.38
2024-03-06T11:52:03.327Z,99615.00
2024-03-06T11:54:31.404Z,99630.59
2024-03-06T11:57:00.377Z,99621.19
2024-03-06T11:59:29.108Z,99623.13
2024-03-06T12:01:57.024Z,99621.56
2024-03-06T12:04:25.356Z,99623.59
2024-03-06T12:06:52.125Z,99613.78
2024-03-06T12:09:18.820Z,99610.25
2024-03-06T12:11:45.614Z,99610.00
2024-03-06T12:14:19.095Z,99614.09
2024-03-06T12:16:55.137Z,99616.44
2024-03-06T12:19:21.885Z,99613.84
2024-03-06T12:21:49.416Z,99613.00
2024-03-06T12:24:21.132Z,99612.78
2024-03-06T12:26:59.636Z,99608.41
2024-03-06T12:29:29.706Z,99611.97
2024-03-06T12:31:58.388Z,99608.66
2024-03-06T12:34:24.986Z,99602.72
2024-03-06T12:36:52.059Z,99595.47
2024-03-06T12:39:22.445Z,99593.00
2024-03-06T12:41:49.186Z,99596.94
2024-03-06T12:44:16.539Z,99601.31
2024-03-06T12:46:43.654Z,99592.41
2024-03-06T12:49:10.299Z,99582.81
2024-03-06T12:51:36.964Z,99584.03
2024-03-06T12:54:04.951Z,99580.22
2024-03-06T12:56:31.559Z,99588.59
2024-03-06T12:58:58.164Z,99592.88
2024-03-06T13:01:24.745Z,99580.53
2024-03-06T13:03:51.411Z,99572.88
2024-03-06T13:06:18.051Z,99575.94
2024-03-06T13:08:45.019Z,99577.09
2024-03-06T13:11:11.981Z,99578.38
2024-03-06T13:13:38.892Z,99572.22
2024-03-06T13:16:07.551Z,99566.41
2024-03-06T13:18:35.403Z,99565.91
2024-03-06T13:21:03.046Z,99565.63
2024-03-06T13:23:29.793Z,99566.19
2024-03-06T13:25:56.333Z,99555.41
2024-03-06T13:28:22.794Z,99560.88
2024-03-06T13:30:49.298Z,99560.44
2024-03-06T13:33:15.985Z,99551.31
2024-03-06T13:35:43.838Z,99552.97
2024-03-06T13:38:10.541Z,99543.00
2024-03-06T13:40:37.514Z,99546.91
2024-03-06T13:43:04.154Z,99544.06
2024-03-06T13:45:30.794Z,99544.78
2024-03-06T13:47:57.563Z,99541.44
2024-03-06T13:50:26.824Z,99550.16
2024-03-06T13:52:53.490Z,99540.31
2024-03-06T13:55:20.063Z,99540.94
2024-03-06T13:57:47.486Z,99536.47
2024-03-06T14:00:18.394Z,99534.69
2024-03-06T14:02:48.968Z,99535.75
2024-03-06T14:05:16.151Z,99522.00
2024-03-06T14:07:43.101Z,99538.16
2024-03-06T14:10:11.918Z,99525.00
2024-03-06T14:12:40.195Z,99531.53
2024-03-06T14:15:13.980Z,99519.25
2024-03-06T14:17:41.473Z,99526.81
2024-03-06T14:20:08.652Z,99522.50
2024-03-06T14:22:35.210Z,99519.03
2024-03-06T14:25:01.704Z,99518.25
2024-03-06T14:27:28.488Z,99512.72
2024-03-06T14:29:55.466Z,99521.38
2024-03-06T14:32:22.478Z,99514.13
2024-03-06T14:34:49.048Z,99509.38
2024-03-06T14:37:15.730Z,99499.81
2024-03-06T14:39:42.270Z,99509.59
2024-03-06T14:42:08.906Z,99511.25
2024-03-06T14:44:35.645Z,99510.78
2024-03-06T14:47:02.317Z,99505.56
2024-03-06T14:49:28.968Z,99504.88
2024-03-06T14:51:56.696Z,99505.56
2024-03-06T14:54:26.887Z,99505.38
2024-03-06T14:56:54.438Z,99516.88
2024-03-06T14:59:22.428Z,99514.03
2024-03-06T15:01:49.047Z,99514.13
2024-03-06T15:04:15.647Z,99518.88
2024-03-06T15:06:42.391Z,99514.38
2024-03-06T15:09:13.059Z,99500.94
2024-03-06T15:11:42.847Z,99518.03
2024-03-06T15:14:09.733Z,99510.44
2024-03-06T15:16:38.480Z,99508.59
2024-03-06T15:19:05.328Z,99514.13
2024-03-06T15:21:32.959Z,99506.88
2024-03-06T15:24:00.516Z,99504.16
2024-03-06T15:26:28.663Z,99509.38
2024-03-06T15:28:55.247Z,99502.63
2024-03-06T15:31:21.841Z,99512.22
2024-03-06T15:33:48.546Z,99511.72
2024-03-06T15:36:17.239Z,99517.34
2024-03-06T15:38:44.033Z,99511.22
2024-03-06T15:41:10.873Z,99515.47
2024-03-06T15:43:38.107Z,99519.13
2024-03-06T15:46:04.945Z,99519.13
2024-03-06T15:48:33.825Z,99524.88
2024-03-06T15:51:00.890Z,99516.44
2024-03-06T15:53:31.412Z,99527.47
2024-03-06T15:55:58.013Z,99530.06
2024-03-06T15:58:25.733Z,99523.69
2024-03-06T16:01:00.146Z,99527.47
2024-03-06T16:03:28.309Z,99525.84
2024-03-06T16:06:02.324Z,99533.47
2024-03-06T16:08:38.427Z,99532.22
2024-03-06T16:11:05.589Z,99537.34
2024-03-06T16:13:32.323Z,99527.88
2024-03-06T16:15:59.468Z,99544.22
2024-03-06T16:18:26.146Z,99539.09
2024-03-06T16:20:53.571Z,99548.06
2024-03-06T16:23:20.292Z,99549.78
2024-03-06T16:25:47.036Z,99556.66
2024-03-06T16:28:14.130Z,99546.47
2024-03-06T16:30:40.711Z,99551.91
2024-03-06T16:33:07.481Z,99559.63
2024-03-06T16:35:34.296Z,99547.34
2024-03-06T16:38:01.006Z,99558.81
2024-03-06T16:40:27.592Z,99567.34
2024-03-06T16:42:54.232Z,99562.75
2024-03-06T16:45:21.611Z,99563.13
2024-03-06T16:47:48.428Z,99568.53
2024-03-06T16:50:15.652Z,99578.06
2024-03-06T16:52:42.567Z,99570.13
2024-03-06T16:55:09.501Z,99578.22
2024-03-06T16:57:38.326Z,99585.28
2024-03-06T17:00:09.201Z,99575.47
2024-03-06T17:02:36.255Z,99581.97
2024-03-06T17:07:29.963Z,99580.47
2024-03-06T17:09:56.653Z,99591.66
2024-03-06T17:12:23.299Z,99601.03
2024-03-06T17:14:49.937Z,99595.19
2024-03-06T17:17:16.622Z,99596.81
2024-03-06T17:19:43.179Z,99608.06
2024-03-06T17:22:10.210Z,99603.44
2024-03-06T17:24:36.812Z,99602.81
2024-03-06T17:27:03.477Z,99612.09
2024-03-06T17:29:30.037Z,99591.81
2024-03-06T17:31:56.803Z,99605.78
2024-03-06T17:34:23.687Z,99602.16
2024-03-06T17:36:50.232Z,99606.06
2024-03-06T17:39:16.852Z,99605.81
2024-03-06T17:41:46.050Z,99613.69
2024-03-06T17:44:12.741Z,99602.84
2024-03-06T17:46:39.293Z,99611.97
2024-03-06T17:49:05.920Z,99610.66
2024-03-06T17:51:35.986Z,99617.31
2024-03-06T17:54:03.758Z,99604.78
2024-03-06T17:56:30.622Z,99608.44
2024-03-06T17:58:57.211Z,99607.44
2024-03-06T18:01:25.124Z,99603.47
2024-03-06T18:03:52.869Z,99615.28
2024-03-06T18:06:19.347Z,99619.66
2024-03-06T18:08:46.157Z,99617.81
2024-03-06T18:11:13.153Z,99611.75
2024-03-06T18:13:39.930Z,99612.28
2024-03-06T18:16:10.842Z,99616.09
2024-03-06T18:18:38.291Z,99620.84
2024-03-06T18:21:05.595Z,99617.53
2024-03-06T18:23:32.458Z,99625.03
2024-03-06T18:25:59.142Z,99618.72
2024-03-06T18:28:25.725Z,99617.16
2024-03-06T18:30:52.522Z,99621.22
2024-03-06T18:33:19.751Z,99626.34
2024-03-06T18:35:46.432Z,99631.25
2024-03-06T18:38:13.424Z,99620.09
2024-03-06T18:40:40.076Z,99631.88
2024-03-06T18:43:06.635Z,99640.19
2024-03-06T18:45:34.439Z,99638.22
2024-03-06T18:48:01.359Z,99637.91
2024-03-06T18:50:30.923Z,99649.16
2024-03-06T18:52:59.532Z,99643.56
2024-03-06T18:55:26.194Z,99649.88
2024-03-06T18:57:52.760Z,99641.88
2024-03-06T19:00:19.624Z,99640.25
2024-03-06T19:02:46.290Z,99647.53
2024-03-06T19:05:13.067Z,99653.16
2024-03-06T19:07:39.682Z,99656.44
2024-03-06T19:10:07.121Z,99656.31
2024-03-06T19:12:33.747Z,99659.13
2024-03-06T19:15:00.557Z,99654.56
2024-03-06T19:17:27.208Z,99659.72
2024-03-06T19:19:54.178Z,99664.63
2024-03-06T19:22:20.751Z,99661.09
2024-03-06T19:24:48.347Z,99669.84
2024-03-06T19:27:14.869Z,99663.44
2024-03-06T19:29:41.572Z,99672.03
2024-03-06T19:32:11.592Z,99674.84
2024-03-06T19:34:38.527Z,99684.09
2024-03-06T19:37:05.346Z,99685.50
2024-03-06T19:39:32.360Z,99694.22
2024-03-06T19:41:59.465Z,99676.16
2024-03-06T19:44:28.167Z,99692.06
2024-03-06T19:46:55.250Z,99679.47
2024-03-06T19:49:22.061Z,99695.63
2024-03-06T19:51:50.798Z,99689.88
2024-03-06T19:54:17.292Z,99676.69
2024-03-06T19:56:44.761Z,99689.53
2024-03-06T19:59:11.388Z,99688.03
2024-03-06T20:01:38.052Z,99693.41
2024-03-06T20:04:06.422Z,99689.06
2024-03-06T20:06:32.989Z,99678.03
2024-03-06T20:08:59.676Z,99697.56
2024-03-06T20:11:27.311Z,99703.78
2024-03-06T20:13:54.309Z,99701.63
2024-03-06T20:16:21.255Z,99706.16
2024-03-06T20:18:47.920Z,99713.09
2024-03-06T20:21:14.575Z,99715.97
2024-03-06T20:23:41.179Z,99700.41
2024-03-06T20:26:09.182Z,99709.44
2024-03-06T20:28:35.827Z,99718.88
2024-03-06T20:31:02.522Z,99715.34
2024-03-06T20:33:31.368Z,99701.44
2024-03-06T20:35:58.197Z,99719.94
2024-03-06T20:38:25.939Z,99719.56
2024-03-06T20:40:52.744Z,99708.22
2024-03-06T20:43:22.984Z,99718.66
2024-03-06T20:45:51.673Z,99715.13
2024-03-06T20:48:18.710Z,99710.94
2024-03-06T20:50:45.306Z,99714.47
2024-03-06T20:53:12.697Z,99715.00
2024-03-06T20:55:39.498Z,99706.94
2024-03-06T20:58:06.084Z,99709.44
2024-03-06T21:00:32.909Z,99710.94
2024-03-06T21:02:59.476Z,99709.63
2024-03-06T21:05:26.100Z,99711.47
2024-03-06T21:07:53.219Z,99717.53
2024-03-06T21:10:19.849Z,99707.13
2024-03-06T21:12:49.245Z,99702.81
2024-03-06T21:15:16.904Z,99721.44
2024-03-06T21:17:44.400Z,99720.44
2024-03-06T21:20:14.402Z,99717.81
2024-03-06T21:22:42.310Z,99715.47
2024-03-06T21:25:10.089Z,99712.28
2024-03-06T21:27:37.923Z,99716.66
2024-03-06T21:30:07.251Z,99710.94
2024-03-06T21:32:37.536Z,99712.13
2024-03-06T21:35:05.304Z,99710.78
2024-03-06T21:37:31.930Z,99715.00
2024-03-06T21:40:02.354Z,99703.75
2024-03-06T21:42:29.000Z,99704.75
2024-03-06T21:44:55.616Z,99696.53
2024-03-06T21:47:22.724Z,99707.44
2024-03-06T21:49:50.422Z,99704.75
2024-03-06T21:52:17.463Z,99710.13
2024-03-06T21:54:44.250Z,99705.75
2024-03-06T21:57:16.276Z,99717.34
2024-03-06T21:59:43.137Z,99708.81
2024-03-06T22:02:12.002Z,99720.72
2024-03-06T22:04:38.882Z,99715.34
2024-03-06T22:07:05.620Z,99718.88
2024-03-06T22:09:32.275Z,99722.91
2024-03-06T22:12:01.884Z,99724.94
2024-03-06T22:14:29.007Z,99724.44
2024-03-06T22:16:55.586Z,99715.53
2024-03-06T22:19:23.138Z,99724.28
2024-03-06T22:21:50.157Z,99714.88
2024-03-06T22:24:17.696Z,99714.22
2024-03-06T22:26:44.734Z,99722.91
2024-03-06T22:29:11.712Z,99717.38
2024-03-06T22:31:38.957Z,99713.38
2024-03-06T22:34:06.427Z,99708.00
2024-03-06T22:36:32.918Z,99716.72
2024-03-06T22:39:00.695Z,99720.06
2024-03-06T22:41:27.690Z,99721.59
2024-03-06T22:43:54.262Z,99724.28
2024-03-06T22:46:22.497Z,99716.22
2024-03-06T22:48:50.183Z,99717.75
2024-03-06T22:51:18.736Z,99719.41
2024-03-06T22:53:45.717Z,99719.72
2024-03-06T22:56:12.444Z,99711.03
2024-03-06T22:58:39.001Z,99721.09
2024-03-06T23:01:07.542Z,99717.41
2024-03-06T23:03:34.903Z,99716.88
2024-03-06T23:06:01.885Z,99714.03
2024-03-06T23:08:29.110Z,99715.19
2024-03-06T23:10:59.396Z,99716.38
2024-03-06T23:13:26.491Z,99716.91
2024-03-06T23:15:53.835Z,99712.19
2024-03-06T23:18:21.023Z,99724.94
2024-03-06T23:20:47.854Z,99716.53
2024-03-06T23:23:14.599Z,99727.09
2024-03-06T23:25:41.401Z,99712.84
2024-03-06T23:28:08.012Z,99719.19
2024-03-06T23:30:34.597Z,99724.56
2024-03-06T23:33:01.308Z,99720.50
2024-03-06T23:35:28.544Z,99730.41
2024-03-06T23:37:55.070Z,99720.19
2024-03-06T23:40:21.690Z,99726.91
2024-03-06T23:42:48.406Z,99732.28
2024-03-06T23:45:17.052Z,99722.03
2024-03-06T23:47:47.073Z,99734.59
2024-03-06T23:50:15.265Z,99723.56
2024-03-06T23:52:41.799Z,99714.81
2024-03-06T23:55:11.232Z,99724.41
2024-03-06T23:57:37.876Z,99726.94
